Millerton, OK (74750)

3:29 AM CDT on September 29, 2016 (GMT -0500)
Wright City - Eastside - Sunshine Farm | | Change Station

Elev 413 ft 34.05 °N, 94.98 °W | Updated 5 minutes ago

Clear
Clear
58.5 °F
Feels Like 58.5 °F
N
2.5
Wind Variable Wind from North

Today
High -- | Low -- °F
--% Chance of Precip.
Yesterday
High -- | Low -- °F
Precip. -- in
Pressure 30.15 in
Visibility 10.0 miles
Clouds Clear
Dew Point 45 °F
Humidity 66%
Rainfall Not available.
Snow Depth Not available.
7:13 AM 7:06 PM
Waning Crescent, 3% visible
METAR K4O4 290815Z AUTO 00000KT 10SM CLR 12/08 A3015 RMK AO2
Pressure 30.15 in
Visibility 10.0 miles
Clouds Clear
Dew Point 45 °F
Humidity 66%
Rainfall Not available.
Snow Depth Not available.
7:13 AM 7:06 PM
Waning Crescent, 3% visible
METAR K4O4 290815Z AUTO 00000KT 10SM CLR 12/08 A3015 RMK AO2

10-Day Weather Forecast

Almanac

Astronomy

Sep. 29, 2016 Rise Set
Actual Time
Civil Twilight
Nautical Twilight
Astronomical Twilight
Moon
Length of Visible Light
Length of Day
Tomorrow will be .
, % of the Moon is Illuminated

Today's Extremes

State Highs State Lows

Community

WunderPhotos

Upload Photos

1,942,446 photos uploaded!

WunderBlog® & News

Nearby

Air Quality

  Air Quality AQ Index Pollutant
Not available.

Snow Depth

Station Depth Elevation

Earthquake Activity

City Distance Mag. Time & Date
Minimum magnitude displayed is 2.5.

Coastal Water Temperatures

Place Temperature

Stations

Nearby Weather Stations

Station Location Temp. Windchill Dew Point Humidity Wind Precip. Elev Updated Type
                   

Watches & Warnings

There are currently no watches in effect.